sensor_id;sensor_type;location;lat;lon;timestamp;pressure;altitude;pressure_sealevel;temperature;humidity
64453;BME280;50813;52.654;6.766;2023-03-03T00:00:55;102513.00000000001;;;2.42;100.0
64453;BME280;50813;52.654;6.766;2023-03-03T00:04:07;102518.0;;;2.41;100.0
64453;BME280;50813;52.654;6.766;2023-03-03T00:05:44;102514.00000000001;;;2.54;100.0
64453;BME280;50813;52.654;6.766;2023-03-03T00:07:20;102519.0;;;2.64;100.0
64453;BME280;50813;52.654;6.766;2023-03-03T00:10:32;102516.00000000001;;;2.72;100.0
64453;BME280;50813;52.654;6.766;2023-03-03T00:12:20;102516.00000000001;;;2.54;100.0
64453;BME280;50813;52.654;6.766;2023-03-03T00:13:57;102514.00000000001;;;2.52;100.0
64453;BME280;50813;52.654;6.766;2023-03-03T00:15:34;102516.00000000001;;;2.57;100.0
64453;BME280;50813;52.654;6.766;2023-03-03T00:18:56;102515.00000000001;;;2.61;100.0
64453;BME280;50813;52.654;6.766;2023-03-03T00:20:35;102517.0;;;2.48;100.0
64453;BME280;50813;52.654;6.766;2023-03-03T00:22:16;102517.0;;;2.36;100.0
64453;BME280;50813;52.654;6.766;2023-03-03T00:24:17;102519.0;;;2.35;100.0
64453;BME280;50813;52.654;6.766;2023-03-03T00:25:55;102523.0;;;2.38;100.0
64453;BME280;50813;52.654;6.766;2023-03-03T00:29:26;102522.0;;;2.36;100.0
64453;BME280;50813;52.654;6.766;2023-03-03T00:31:16;102525.0;;;2.33;100.0
64453;BME280;50813;52.654;6.766;2023-03-03T00:32:52;102526.0;;;2.27;100.0
64453;BME280;50813;52.654;6.766;2023-03-03T00:34:29;102525.0;;;2.27;100.0
64453;BME280;50813;52.654;6.766;2023-03-03T00:38:14;102527.0;;;2.27;100.0
64453;BME280;50813;52.654;6.766;2023-03-03T00:39:52;102526.0;;;2.31;100.0
64453;BME280;50813;52.654;6.766;2023-03-03T00:41:29;102532.0;;;2.44;100.0
64453;BME280;50813;52.654;6.766;2023-03-03T00:43:14;102533.99999999999;;;2.46;100.0
64453;BME280;50813;52.654;6.766;2023-03-03T00:44:55;102533.0;;;2.38;100.0
64453;BME280;50813;52.654;6.766;2023-03-03T00:48:21;102532.0;;;2.46;100.0
64453;BME280;50813;52.654;6.766;2023-03-03T00:50:20;102536.99999999999;;;2.38;100.0
64453;BME280;50813;52.654;6.766;2023-03-03T00:52:00;102533.0;;;2.56;100.0
64453;BME280;50813;52.654;6.766;2023-03-03T00:53:36;102534.99999999999;;;2.68;100.0
64453;BME280;50813;52.654;6.766;2023-03-03T00:55:12;102539.00000000001;;;2.67;100.0
64453;BME280;50813;52.654;6.766;2023-03-03T00:58:25;102536.99999999999;;;2.48;100.0
64453;BME280;50813;52.654;6.766;2023-03-03T01:00:02;102533.0;;;2.42;100.0
64453;BME280;50813;52.654;6.766;2023-03-03T01:01:40;102534.99999999999;;;2.48;100.0
64453;BME280;50813;52.654;6.766;2023-03-03T01:04:55;102538.00000000001;;;2.4;100.0
64453;BME280;50813;52.654;6.766;2023-03-03T01:06:31;102538.00000000001;;;2.38;100.0
64453;BME280;50813;52.654;6.766;2023-03-03T01:08:07;102536.99999999999;;;2.44;100.0
64453;BME280;50813;52.654;6.766;2023-03-03T01:09:44;102541.00000000001;;;2.56;100.0
64453;BME280;50813;52.654;6.766;2023-03-03T01:13:01;102538.00000000001;;;2.54;100.0
64453;BME280;50813;52.654;6.766;2023-03-03T01:14:38;102541.00000000001;;;2.44;100.0
64453;BME280;50813;52.654;6.766;2023-03-03T01:16:15;102538.00000000001;;;2.5;100.0
64453;BME280;50813;52.654;6.766;2023-03-03T01:19:29;102538.00000000001;;;2.48;100.0
64453;BME280;50813;52.654;6.766;2023-03-03T01:21:06;102533.99999999999;;;2.52;100.0
64453;BME280;50813;52.654;6.766;2023-03-03T01:22:43;102531.0;;;2.57;100.0
64453;BME280;50813;52.654;6.766;2023-03-03T01:25:55;102543.0;;;2.56;100.0
64453;BME280;50813;52.654;6.766;2023-03-03T01:27:33;102534.99999999999;;;2.5;100.0
64453;BME280;50813;52.654;6.766;2023-03-03T01:29:10;102532.0;;;2.35;100.0
64453;BME280;50813;52.654;6.766;2023-03-03T01:30:46;102534.99999999999;;;2.32;100.0
64453;BME280;50813;52.654;6.766;2023-03-03T01:33:58;102533.0;;;2.39;100.0
64453;BME280;50813;52.654;6.766;2023-03-03T01:35:35;102533.0;;;2.29;100.0
64453;BME280;50813;52.654;6.766;2023-03-03T01:37:11;102526.0;;;2.27;100.0
64453;BME280;50813;52.654;6.766;2023-03-03T01:40:26;102530.0;;;2.31;100.0
64453;BME280;50813;52.654;6.766;2023-03-03T01:42:05;102527.0;;;2.33;100.0
64453;BME280;50813;52.654;6.766;2023-03-03T01:43:43;102526.0;;;2.36;100.0
64453;BME280;50813;52.654;6.766;2023-03-03T01:45:22;102522.0;;;2.29;100.0
64453;BME280;50813;52.654;6.766;2023-03-03T01:48:43;102523.0;;;2.31;100.0
64453;BME280;50813;52.654;6.766;2023-03-03T01:50:29;102529.0;;;2.31;100.0
64453;BME280;50813;52.654;6.766;2023-03-03T01:52:12;102522.0;;;2.29;100.0
64453;BME280;50813;52.654;6.766;2023-03-03T01:53:52;102519.0;;;2.44;100.0
64453;BME280;50813;52.654;6.766;2023-03-03T01:57:14;102518.0;;;2.38;100.0
64453;BME280;50813;52.654;6.766;2023-03-03T01:58:58;102517.0;;;2.37;100.0
64453;BME280;50813;52.654;6.766;2023-03-03T02:00:38;102520.0;;;2.39;100.0
64453;BME280;50813;52.654;6.766;2023-03-03T02:02:16;102507.0;;;2.52;100.0
64453;BME280;50813;52.654;6.766;2023-03-03T02:05:28;102508.99999999999;;;2.44;100.0
64453;BME280;50813;52.654;6.766;2023-03-03T02:07:07;102508.0;;;2.46;100.0
64453;BME280;50813;52.654;6.766;2023-03-03T02:08:50;102503.0;;;2.48;100.0
64453;BME280;50813;52.654;6.766;2023-03-03T02:10:29;102504.0;;;2.41;100.0
64453;BME280;50813;52.654;6.766;2023-03-03T02:13:47;102506.0;;;2.48;100.0
64453;BME280;50813;52.654;6.766;2023-03-03T02:15:24;102507.0;;;2.48;100.0
64453;BME280;50813;52.654;6.766;2023-03-03T02:17:02;102507.0;;;2.44;100.0
64453;BME280;50813;52.654;6.766;2023-03-03T02:20:19;102508.0;;;2.56;100.0
64453;BME280;50813;52.654;6.766;2023-03-03T02:22:01;102504.0;;;2.46;100.0
64453;BME280;50813;52.654;6.766;2023-03-03T02:23:44;102503.0;;;2.5;100.0
64453;BME280;50813;52.654;6.766;2023-03-03T02:25:30;102502.0;;;2.54;100.0
64453;BME280;50813;52.654;6.766;2023-03-03T02:27:09;102499.0;;;2.48;100.0
64453;BME280;50813;52.654;6.766;2023-03-03T02:30:22;102497.0;;;2.56;100.0
64453;BME280;50813;52.654;6.766;2023-03-03T02:32:00;102495.0;;;2.52;100.0
64453;BME280;50813;52.654;6.766;2023-03-03T02:33:37;102497.0;;;2.56;100.0
64453;BME280;50813;52.654;6.766;2023-03-03T02:37:10;102501.0;;;2.48;100.0
64453;BME280;50813;52.654;6.766;2023-03-03T02:38:50;102506.0;;;2.44;100.0
64453;BME280;50813;52.654;6.766;2023-03-03T02:40:33;102500.0;;;2.41;100.0
64453;BME280;50813;52.654;6.766;2023-03-03T02:42:16;102503.0;;;2.46;100.0
64453;BME280;50813;52.654;6.766;2023-03-03T02:43:58;102504.0;;;2.46;100.0
64453;BME280;50813;52.654;6.766;2023-03-03T02:47:18;102504.0;;;2.36;100.0
64453;BME280;50813;52.654;6.766;2023-03-03T02:48:54;102506.0;;;2.41;100.0
64453;BME280;50813;52.654;6.766;2023-03-03T02:50:30;102508.0;;;2.44;100.0
64453;BME280;50813;52.654;6.766;2023-03-03T02:53:46;102506.0;;;2.25;100.0
64453;BME280;50813;52.654;6.766;2023-03-03T02:55:22;102502.0;;;2.29;100.0
64453;BME280;50813;52.654;6.766;2023-03-03T02:56:59;102501.0;;;2.42;100.0
64453;BME280;50813;52.654;6.766;2023-03-03T02:58:36;102500.0;;;2.35;100.0
64453;BME280;50813;52.654;6.766;2023-03-03T03:01:50;102507.0;;;2.37;100.0
64453;BME280;50813;52.654;6.766;2023-03-03T03:03:27;102507.0;;;2.29;100.0
64453;BME280;50813;52.654;6.766;2023-03-03T03:05:03;102507.0;;;2.32;100.0
64453;BME280;50813;52.654;6.766;2023-03-03T03:08:17;102506.0;;;2.31;100.0
64453;BME280;50813;52.654;6.766;2023-03-03T03:09:54;102505.0;;;2.5;100.0
64453;BME280;50813;52.654;6.766;2023-03-03T03:11:30;102508.99999999999;;;2.48;100.0
64453;BME280;50813;52.654;6.766;2023-03-03T03:14:42;102508.0;;;2.44;100.0
64453;BME280;50813;52.654;6.766;2023-03-03T03:16:18;102517.0;;;2.29;100.0
64453;BME280;50813;52.654;6.766;2023-03-03T03:17:54;102518.0;;;2.33;100.0
64453;BME280;50813;52.654;6.766;2023-03-03T03:19:30;102514.00000000001;;;2.41;100.0
64453;BME280;50813;52.654;6.766;2023-03-03T03:22:45;102514.00000000001;;;2.44;100.0
64453;BME280;50813;52.654;6.766;2023-03-03T03:24:22;102507.0;;;2.38;100.0
64453;BME280;50813;52.654;6.766;2023-03-03T03:25:58;102509.99999999999;;;2.44;100.0
64453;BME280;50813;52.654;6.766;2023-03-03T03:29:10;102511.99999999999;;;2.34;100.0
64453;BME280;50813;52.654;6.766;2023-03-03T03:30:46;102507.0;;;2.41;100.0
64453;BME280;50813;52.654;6.766;2023-03-03T03:32:22;102516.00000000001;;;2.34;100.0
64453;BME280;50813;52.654;6.766;2023-03-03T03:35:34;102508.0;;;2.27;100.0
64453;BME280;50813;52.654;6.766;2023-03-03T03:37:11;102514.00000000001;;;2.25;100.0
64453;BME280;50813;52.654;6.766;2023-03-03T03:38:47;102519.0;;;2.25;100.0
64453;BME280;50813;52.654;6.766;2023-03-03T03:40:23;102513.00000000001;;;2.21;100.0
64453;BME280;50813;52.654;6.766;2023-03-03T03:43:35;102520.0;;;2.14;100.0
64453;BME280;50813;52.654;6.766;2023-03-03T03:45:12;102522.0;;;2.1;100.0
64453;BME280;50813;52.654;6.766;2023-03-03T03:46:48;102521.0;;;2.25;100.0
64453;BME280;50813;52.654;6.766;2023-03-03T03:50:02;102522.0;;;2.31;100.0
64453;BME280;50813;52.654;6.766;2023-03-03T03:51:38;102526.0;;;2.35;100.0
64453;BME280;50813;52.654;6.766;2023-03-03T03:53:14;102525.0;;;2.41;100.0
64453;BME280;50813;52.654;6.766;2023-03-03T03:56:27;102522.0;;;2.36;100.0
64453;BME280;50813;52.654;6.766;2023-03-03T03:58:04;102526.0;;;2.29;100.0
64453;BME280;50813;52.654;6.766;2023-03-03T03:59:41;102521.0;;;2.27;100.0
64453;BME280;50813;52.654;6.766;2023-03-03T04:01:17;102521.0;;;2.1;100.0
64453;BME280;50813;52.654;6.766;2023-03-03T04:04:29;102524.0;;;2.04;100.0
64453;BME280;50813;52.654;6.766;2023-03-03T04:06:05;102527.0;;;2.07;100.0
64453;BME280;50813;52.654;6.766;2023-03-03T04:07:41;102523.0;;;2.15;100.0
64453;BME280;50813;52.654;6.766;2023-03-03T04:10:54;102520.0;;;2.04;100.0
64453;BME280;50813;52.654;6.766;2023-03-03T04:12:31;102519.0;;;1.99;100.0
64453;BME280;50813;52.654;6.766;2023-03-03T04:14:07;102520.0;;;1.96;100.0
64453;BME280;50813;52.654;6.766;2023-03-03T04:17:21;102514.00000000001;;;2.02;100.0
64453;BME280;50813;52.654;6.766;2023-03-03T04:18:57;102522.0;;;2.05;100.0
64453;BME280;50813;52.654;6.766;2023-03-03T04:20:33;102517.0;;;2.13;100.0
64453;BME280;50813;52.654;6.766;2023-03-03T04:23:46;102517.0;;;2.23;100.0
64453;BME280;50813;52.654;6.766;2023-03-03T04:25:22;102517.0;;;2.16;100.0
64453;BME280;50813;52.654;6.766;2023-03-03T04:26:59;102517.0;;;2.16;100.0
64453;BME280;50813;52.654;6.766;2023-03-03T04:28:35;102517.0;;;2.23;100.0
64453;BME280;50813;52.654;6.766;2023-03-03T04:31:50;102509.99999999999;;;2.19;100.0
64453;BME280;50813;52.654;6.766;2023-03-03T04:33:26;102513.00000000001;;;2.23;100.0
64453;BME280;50813;52.654;6.766;2023-03-03T04:35:04;102513.00000000001;;;2.35;100.0
64453;BME280;50813;52.654;6.766;2023-03-03T04:38:17;102514.00000000001;;;2.25;100.0
64453;BME280;50813;52.654;6.766;2023-03-03T04:39:53;102514.00000000001;;;2.35;100.0
64453;BME280;50813;52.654;6.766;2023-03-03T04:41:29;102517.0;;;2.32;100.0
64453;BME280;50813;52.654;6.766;2023-03-03T04:43:05;102515.00000000001;;;2.31;100.0
64453;BME280;50813;52.654;6.766;2023-03-03T04:46:18;102516.00000000001;;;2.27;100.0
64453;BME280;50813;52.654;6.766;2023-03-03T04:47:54;102504.0;;;2.21;100.0
64453;BME280;50813;52.654;6.766;2023-03-03T04:49:31;102514.00000000001;;;2.23;100.0
64453;BME280;50813;52.654;6.766;2023-03-03T04:52:43;102514.00000000001;;;2.29;100.0
64453;BME280;50813;52.654;6.766;2023-03-03T04:54:19;102516.00000000001;;;2.27;100.0
64453;BME280;50813;52.654;6.766;2023-03-03T04:55:55;102516.00000000001;;;2.21;100.0
64453;BME280;50813;52.654;6.766;2023-03-03T04:59:07;102517.0;;;2.29;100.0
64453;BME280;50813;52.654;6.766;2023-03-03T05:00:43;102517.0;;;2.38;100.0
64453;BME280;50813;52.654;6.766;2023-03-03T05:02:19;102515.00000000001;;;2.39;100.0
64453;BME280;50813;52.654;6.766;2023-03-03T05:05:31;102517.0;;;2.29;100.0
64453;BME280;50813;52.654;6.766;2023-03-03T05:07:07;102517.0;;;2.31;100.0
64453;BME280;50813;52.654;6.766;2023-03-03T05:08:43;102526.0;;;2.48;100.0
64453;BME280;50813;52.654;6.766;2023-03-03T05:10:19;102524.0;;;2.37;100.0
64453;BME280;50813;52.654;6.766;2023-03-03T05:13:32;102520.0;;;2.41;100.0
64453;BME280;50813;52.654;6.766;2023-03-03T05:15:09;102519.0;;;2.4;100.0
64453;BME280;50813;52.654;6.766;2023-03-03T05:16:47;102525.0;;;2.5;100.0
64453;BME280;50813;52.654;6.766;2023-03-03T05:20:02;102521.0;;;2.44;100.0
64453;BME280;50813;52.654;6.766;2023-03-03T05:21:38;102522.0;;;2.46;100.0
64453;BME280;50813;52.654;6.766;2023-03-03T05:23:15;102526.0;;;2.48;100.0
64453;BME280;50813;52.654;6.766;2023-03-03T05:26:28;102521.0;;;2.36;100.0
64453;BME280;50813;52.654;6.766;2023-03-03T05:28:04;102523.0;;;2.39;100.0
64453;BME280;50813;52.654;6.766;2023-03-03T05:29:40;102526.0;;;2.44;100.0
64453;BME280;50813;52.654;6.766;2023-03-03T05:31:16;102521.0;;;2.34;100.0
64453;BME280;50813;52.654;6.766;2023-03-03T05:34:28;102524.0;;;2.44;100.0
64453;BME280;50813;52.654;6.766;2023-03-03T05:36:05;102523.0;;;2.54;100.0
64453;BME280;50813;52.654;6.766;2023-03-03T05:37:42;102519.0;;;2.61;100.0
64453;BME280;50813;52.654;6.766;2023-03-03T05:40:54;102519.0;;;2.65;100.0
64453;BME280;50813;52.654;6.766;2023-03-03T05:42:30;102520.0;;;2.6;100.0
64453;BME280;50813;52.654;6.766;2023-03-03T05:44:07;102521.0;;;2.66;100.0
64453;BME280;50813;52.654;6.766;2023-03-03T05:47:19;102521.0;;;2.65;100.0
64453;BME280;50813;52.654;6.766;2023-03-03T05:48:56;102526.0;;;2.65;100.0
64453;BME280;50813;52.654;6.766;2023-03-03T05:50:32;102531.0;;;2.62;100.0
64453;BME280;50813;52.654;6.766;2023-03-03T05:52:08;102534.99999999999;;;2.54;100.0
64453;BME280;50813;52.654;6.766;2023-03-03T05:55:20;102533.0;;;2.56;100.0
64453;BME280;50813;52.654;6.766;2023-03-03T05:56:56;102528.0;;;2.68;100.0
64453;BME280;50813;52.654;6.766;2023-03-03T05:58:32;102524.0;;;2.74;100.0
64453;BME280;50813;52.654;6.766;2023-03-03T06:01:46;102526.0;;;2.88;100.0
64453;BME280;50813;52.654;6.766;2023-03-03T06:03:23;102522.0;;;2.79;100.0
64453;BME280;50813;52.654;6.766;2023-03-03T06:04:59;102526.0;;;2.79;100.0
64453;BME280;50813;52.654;6.766;2023-03-03T06:08:11;102528.0;;;2.7;100.0
64453;BME280;50813;52.654;6.766;2023-03-03T06:09:47;102527.0;;;2.68;100.0
64453;BME280;50813;52.654;6.766;2023-03-03T06:11:23;102527.0;;;2.9;100.0
64453;BME280;50813;52.654;6.766;2023-03-03T06:14:35;102526.0;;;2.89;100.0
64453;BME280;50813;52.654;6.766;2023-03-03T06:16:12;102528.0;;;2.89;100.0
64453;BME280;50813;52.654;6.766;2023-03-03T06:17:48;102533.0;;;2.91;100.0
64453;BME280;50813;52.654;6.766;2023-03-03T06:19:24;102533.99999999999;;;2.95;100.0
64453;BME280;50813;52.654;6.766;2023-03-03T06:22:37;102530.0;;;2.93;100.0
64453;BME280;50813;52.654;6.766;2023-03-03T06:24:13;102532.0;;;2.99;100.0
64453;BME280;50813;52.654;6.766;2023-03-03T06:25:49;102532.0;;;3.08;100.0
64453;BME280;50813;52.654;6.766;2023-03-03T06:29:02;102530.0;;;3.15;100.0
64453;BME280;50813;52.654;6.766;2023-03-03T06:30:39;102529.0;;;3.22;100.0
64453;BME280;50813;52.654;6.766;2023-03-03T06:32:15;102525.0;;;3.15;100.0
64453;BME280;50813;52.654;6.766;2023-03-03T06:35:28;102534.99999999999;;;2.91;100.0
64453;BME280;50813;52.654;6.766;2023-03-03T06:37:05;102543.0;;;2.89;100.0
64453;BME280;50813;52.654;6.766;2023-03-03T06:38:42;102547.0;;;2.95;100.0
64453;BME280;50813;52.654;6.766;2023-03-03T06:40:18;102548.0;;;2.89;100.0
64453;BME280;50813;52.654;6.766;2023-03-03T06:43:30;102548.0;;;2.92;100.0
64453;BME280;50813;52.654;6.766;2023-03-03T06:45:07;102548.0;;;2.85;100.0
64453;BME280;50813;52.654;6.766;2023-03-03T06:46:43;102544.0;;;2.92;100.0
64453;BME280;50813;52.654;6.766;2023-03-03T06:49:55;102553.0;;;3.0;100.0
64453;BME280;50813;52.654;6.766;2023-03-03T06:51:33;102545.0;;;2.79;100.0
64453;BME280;50813;52.654;6.766;2023-03-03T06:53:13;102543.0;;;2.85;100.0
64453;BME280;50813;52.654;6.766;2023-03-03T06:56:33;102546.0;;;2.87;100.0
64453;BME280;50813;52.654;6.766;2023-03-03T06:58:14;102551.0;;;2.81;100.0
64453;BME280;50813;52.654;6.766;2023-03-03T06:59:52;102549.0;;;2.84;100.0
64453;BME280;50813;52.654;6.766;2023-03-03T07:01:33;102551.0;;;3.0;100.0
64453;BME280;50813;52.654;6.766;2023-03-03T07:04:52;102551.0;;;3.11;100.0
64453;BME280;50813;52.654;6.766;2023-03-03T07:06:31;102554.0;;;3.25;100.0
64453;BME280;50813;52.654;6.766;2023-03-03T07:08:12;102557.0;;;3.27;100.0
64453;BME280;50813;52.654;6.766;2023-03-03T07:09:53;102557.0;;;3.28;100.0
64453;BME280;50813;52.654;6.766;2023-03-03T07:13:19;102554.0;;;3.35;100.0
64453;BME280;50813;52.654;6.766;2023-03-03T07:15:04;102567.0;;;3.28;100.0
64453;BME280;50813;52.654;6.766;2023-03-03T07:16:51;102569.0;;;3.26;100.0
64453;BME280;50813;52.654;6.766;2023-03-03T07:18:34;102571.0;;;3.31;100.0
64453;BME280;50813;52.654;6.766;2023-03-03T07:20:18;102579.0;;;3.29;100.0
64453;BME280;50813;52.654;6.766;2023-03-03T07:23:36;102577.0;;;3.07;100.0
64453;BME280;50813;52.654;6.766;2023-03-03T07:25:27;102578.0;;;3.13;100.0
64453;BME280;50813;52.654;6.766;2023-03-03T07:27:11;102581.0;;;3.33;100.0
64453;BME280;50813;52.654;6.766;2023-03-03T07:28:52;102583.99999999999;;;3.45;100.0
64453;BME280;50813;52.654;6.766;2023-03-03T07:30:29;102590.00000000001;;;3.27;100.0
64453;BME280;50813;52.654;6.766;2023-03-03T07:33:59;102588.00000000001;;;3.32;100.0
64453;BME280;50813;52.654;6.766;2023-03-03T07:35:37;102588.00000000001;;;3.41;100.0
64453;BME280;50813;52.654;6.766;2023-03-03T07:37:28;102592.0;;;3.52;100.0
64453;BME280;50813;52.654;6.766;2023-03-03T07:39:25;102596.0;;;3.6;100.0
64453;BME280;50813;52.654;6.766;2023-03-03T07:41:05;102592.0;;;3.31;100.0
64453;BME280;50813;52.654;6.766;2023-03-03T07:44:28;102598.0;;;3.32;100.0
64453;BME280;50813;52.654;6.766;2023-03-03T07:46:22;102601.0;;;3.32;100.0
64453;BME280;50813;52.654;6.766;2023-03-03T07:48:06;102607.0;;;3.41;100.0
64453;BME280;50813;52.654;6.766;2023-03-03T07:49:55;102608.99999999999;;;3.55;100.0
64453;BME280;50813;52.654;6.766;2023-03-03T07:51:37;102611.99999999999;;;3.63;100.0
64453;BME280;50813;52.654;6.766;2023-03-03T07:55:30;102608.0;;;3.69;100.0
64453;BME280;50813;52.654;6.766;2023-03-03T07:57:17;102604.0;;;3.8;100.0
64453;BME280;50813;52.654;6.766;2023-03-03T07:58:57;102609.99999999999;;;3.86;100.0
64453;BME280;50813;52.654;6.766;2023-03-03T08:01:23;102607.0;;;3.85;100.0
64453;BME280;50813;52.654;6.766;2023-03-03T08:03:16;102611.99999999999;;;3.98;100.0
64453;BME280;50813;52.654;6.766;2023-03-03T08:04:53;102608.99999999999;;;3.99;100.0
64453;BME280;50813;52.654;6.766;2023-03-03T08:06:36;102607.0;;;4.07;100.0
64453;BME280;50813;52.654;6.766;2023-03-03T08:08:27;102609.99999999999;;;4.26;100.0
64453;BME280;50813;52.654;6.766;2023-03-03T08:12:21;102608.0;;;4.45;100.0
64453;BME280;50813;52.654;6.766;2023-03-03T08:14:14;102613.00000000001;;;4.55;100.0
64453;BME280;50813;52.654;6.766;2023-03-03T08:15:58;102611.99999999999;;;4.58;100.0
64453;BME280;50813;52.654;6.766;2023-03-03T08:17:37;102611.99999999999;;;4.78;100.0
64453;BME280;50813;52.654;6.766;2023-03-03T08:19:16;102606.0;;;4.78;100.0
64453;BME280;50813;52.654;6.766;2023-03-03T08:20:55;102613.00000000001;;;4.84;100.0
64453;BME280;50813;52.654;6.766;2023-03-03T08:24:10;102615.00000000001;;;5.03;100.0
64453;BME280;50813;52.654;6.766;2023-03-03T08:25:47;102615.00000000001;;;4.96;100.0
64453;BME280;50813;52.654;6.766;2023-03-03T08:27:24;102608.99999999999;;;5.26;100.0
64453;BME280;50813;52.654;6.766;2023-03-03T08:30:36;102611.99999999999;;;5.45;100.0
64453;BME280;50813;52.654;6.766;2023-03-03T08:32:14;102616.00000000001;;;5.61;100.0
64453;BME280;50813;52.654;6.766;2023-03-03T08:33:51;102615.00000000001;;;5.75;100.0
64453;BME280;50813;52.654;6.766;2023-03-03T08:35:27;102613.00000000001;;;5.66;99.88
64453;BME280;50813;52.654;6.766;2023-03-03T08:38:40;102616.00000000001;;;5.74;100.0
64453;BME280;50813;52.654;6.766;2023-03-03T08:40:16;102608.0;;;5.77;98.96
64453;BME280;50813;52.654;6.766;2023-03-03T08:41:52;102608.99999999999;;;5.94;98.78
64453;BME280;50813;52.654;6.766;2023-03-03T08:45:05;102613.00000000001;;;6.02;97.91
64453;BME280;50813;52.654;6.766;2023-03-03T08:46:42;102609.99999999999;;;6.11;98.96
64453;BME280;50813;52.654;6.766;2023-03-03T08:48:19;102615.00000000001;;;6.18;98.09
64453;BME280;50813;52.654;6.766;2023-03-03T08:49:56;102614.00000000001;;;6.42;98.24
64453;BME280;50813;52.654;6.766;2023-03-03T08:53:09;102615.00000000001;;;6.53;96.03
64453;BME280;50813;52.654;6.766;2023-03-03T08:54:45;102614.00000000001;;;6.52;93.46
64453;BME280;50813;52.654;6.766;2023-03-03T08:56:22;102617.0;;;6.53;93.67
64453;BME280;50813;52.654;6.766;2023-03-03T08:59:34;102614.00000000001;;;6.28;94.52
64453;BME280;50813;52.654;6.766;2023-03-03T09:01:10;102616.00000000001;;;6.63;93.65
64453;BME280;50813;52.654;6.766;2023-03-03T09:02:46;102620.0;;;6.59;93.39
64453;BME280;50813;52.654;6.766;2023-03-03T09:06:00;102618.0;;;6.75;91.71
64453;BME280;50813;52.654;6.766;2023-03-03T09:07:36;102616.00000000001;;;6.55;93.33
64453;BME280;50813;52.654;6.766;2023-03-03T09:09:13;102620.0;;;6.38;92.95
64453;BME280;50813;52.654;6.766;2023-03-03T09:12:28;102621.0;;;6.7;92.46
64453;BME280;50813;52.654;6.766;2023-03-03T09:15:47;102616.00000000001;;;6.77;94.0
64453;BME280;50813;52.654;6.766;2023-03-03T09:17:27;102618.0;;;6.83;93.37
64453;BME280;50813;52.654;6.766;2023-03-03T09:20:59;102619.0;;;6.84;92.51
64453;BME280;50813;52.654;6.766;2023-03-03T09:22:37;102615.00000000001;;;7.05;92.18
64453;BME280;50813;52.654;6.766;2023-03-03T09:24:21;102617.0;;;7.12;92.8
64453;BME280;50813;52.654;6.766;2023-03-03T09:26:19;102618.0;;;7.36;92.28
64453;BME280;50813;52.654;6.766;2023-03-03T09:28:18;102616.00000000001;;;7.5;90.74
64453;BME280;50813;52.654;6.766;2023-03-03T09:30:00;102613.00000000001;;;7.72;88.85
64453;BME280;50813;52.654;6.766;2023-03-03T09:33:23;102619.0;;;7.27;87.23
64453;BME280;50813;52.654;6.766;2023-03-03T09:35:29;102618.0;;;7.39;87.53
64453;BME280;50813;52.654;6.766;2023-03-03T09:37:19;102614.00000000001;;;7.55;88.02
64453;BME280;50813;52.654;6.766;2023-03-03T09:38:57;102614.00000000001;;;7.62;88.88
64453;BME280;50813;52.654;6.766;2023-03-03T09:40:48;102614.00000000001;;;7.2;87.64
64453;BME280;50813;52.654;6.766;2023-03-03T09:42:39;102614.00000000001;;;7.19;87.77
64453;BME280;50813;52.654;6.766;2023-03-03T09:44:54;102617.0;;;6.86;88.13
64453;BME280;50813;52.654;6.766;2023-03-03T09:47:55;102617.0;;;6.87;89.4
64453;BME280;50813;52.654;6.766;2023-03-03T09:49:43;102615.00000000001;;;7.08;89.28
64453;BME280;50813;52.654;6.766;2023-03-03T09:51:45;102619.0;;;7.26;89.04
64453;BME280;50813;52.654;6.766;2023-03-03T09:54:00;102615.00000000001;;;7.28;87.87
64453;BME280;50813;52.654;6.766;2023-03-03T09:55:58;102620.0;;;7.26;87.37
64453;BME280;50813;52.654;6.766;2023-03-03T09:57:50;102618.0;;;7.3;89.53
64453;BME280;50813;52.654;6.766;2023-03-03T09:59:43;102620.0;;;7.31;88.19
64453;BME280;50813;52.654;6.766;2023-03-03T10:01:37;102621.0;;;7.32;90.7
64453;BME280;50813;52.654;6.766;2023-03-03T10:05:07;102619.0;;;7.48;88.61
64453;BME280;50813;52.654;6.766;2023-03-03T10:06:53;102623.0;;;7.5;88.51
64453;BME280;50813;52.654;6.766;2023-03-03T10:08:44;102620.0;;;7.86;88.06
64453;BME280;50813;52.654;6.766;2023-03-03T10:11:12;102620.0;;;7.76;85.94
64453;BME280;50813;52.654;6.766;2023-03-03T10:13:00;102626.0;;;8.08;85.44
64453;BME280;50813;52.654;6.766;2023-03-03T10:14:58;102620.0;;;7.98;86.35
64453;BME280;50813;52.654;6.766;2023-03-03T10:17:18;102620.0;;;8.2;83.95
64453;BME280;50813;52.654;6.766;2023-03-03T10:19:02;102621.0;;;8.43;82.97
64453;BME280;50813;52.654;6.766;2023-03-03T10:20:54;102622.0;;;8.17;82.69
64453;BME280;50813;52.654;6.766;2023-03-03T10:22:43;102617.0;;;7.96;82.05
64453;BME280;50813;52.654;6.766;2023-03-03T10:24:27;102620.0;;;8.31;83.19
64453;BME280;50813;52.654;6.766;2023-03-03T10:28:06;102623.0;;;8.61;83.98
64453;BME280;50813;52.654;6.766;2023-03-03T10:30:00;102620.0;;;8.84;80.72
64453;BME280;50813;52.654;6.766;2023-03-03T10:31:50;102621.0;;;8.94;77.55
64453;BME280;50813;52.654;6.766;2023-03-03T10:33:42;102619.0;;;9.0;78.16
64453;BME280;50813;52.654;6.766;2023-03-03T10:35:32;102623.0;;;8.78;77.53
64453;BME280;50813;52.654;6.766;2023-03-03T10:37:17;102622.0;;;8.91;78.3
64453;BME280;50813;52.654;6.766;2023-03-03T10:39:14;102619.0;;;9.1;76.47
64453;BME280;50813;52.654;6.766;2023-03-03T10:41:06;102619.0;;;8.77;77.03
64453;BME280;50813;52.654;6.766;2023-03-03T10:44:52;102619.0;;;8.73;76.77
64453;BME280;50813;52.654;6.766;2023-03-03T10:46:50;102617.0;;;9.0;77.22
64453;BME280;50813;52.654;6.766;2023-03-03T10:48:44;102615.00000000001;;;9.0;76.49
64453;BME280;50813;52.654;6.766;2023-03-03T10:50:33;102614.00000000001;;;9.28;75.44